createdAt,value
2016-11-09T10:54:44.176Z,145
2016-11-09T11:04:20.957Z,170
2016-11-09T11:04:53.273Z,175
2016-11-09T11:05:26.416Z,175
2016-11-09T11:05:58.744Z,175
2016-11-09T11:06:31.062Z,170
2016-11-09T11:07:50.743Z,165
2016-11-09T11:09:46.248Z,175
2016-11-09T11:24:28.045Z,205
2016-11-09T11:25:00.380Z,210
2016-11-09T11:25:32.685Z,205
2016-11-09T11:26:05.025Z,205
2016-11-09T11:26:37.350Z,210
2016-11-09T11:27:09.696Z,215
2016-11-09T11:27:42.046Z,210
2016-11-09T11:28:14.362Z,205
2016-11-09T11:28:46.675Z,200
2016-11-09T11:29:18.992Z,205
2016-11-09T11:29:51.319Z,210
2016-11-09T11:30:23.644Z,210
2016-11-09T11:30:55.971Z,200
2016-11-09T11:31:28.297Z,200
2016-11-09T11:32:00.701Z,200
2016-11-09T11:32:33.011Z,200
2016-11-09T11:33:05.330Z,200
2016-11-09T11:33:37.664Z,200
2016-11-09T11:34:11.041Z,195
2016-11-09T11:34:43.365Z,190
2016-11-09T11:35:17.131Z,195
2016-11-09T11:35:49.494Z,195
2016-11-09T11:36:22.391Z,190
2016-11-09T11:36:54.780Z,190
2016-11-09T11:37:27.092Z,190
2016-11-09T11:38:00.011Z,185
2016-11-09T11:38:32.340Z,185
2016-11-09T11:39:04.663Z,185
2016-11-09T11:39:37.020Z,180
2016-11-09T11:40:09.377Z,185
2016-11-09T11:40:41.704Z,185
2016-11-09T11:41:14.053Z,185
2016-11-09T11:41:46.396Z,190
2016-11-09T11:42:18.737Z,195
2016-11-09T11:42:51.081Z,195
2016-11-09T11:43:23.405Z,190
2016-11-09T11:43:55.728Z,200
2016-11-09T11:44:28.072Z,200
2016-11-09T11:45:00.596Z,215
2016-11-09T11:45:32.913Z,220
2016-11-09T11:46:05.268Z,220
2016-11-09T11:46:37.591Z,230
2016-11-09T11:47:09.908Z,235
2016-11-09T11:47:43.556Z,235
2016-11-09T11:48:15.857Z,240
2016-11-09T11:48:49.339Z,255
2016-11-09T11:49:21.797Z,250
2016-11-09T11:49:54.119Z,255
2016-11-09T11:50:27.488Z,275
2016-11-09T11:51:01.948Z,280
2016-11-09T11:51:35.450Z,290
2016-11-09T11:52:07.816Z,305
2016-11-09T11:52:40.149Z,325
2016-11-09T11:53:12.466Z,330
2016-11-09T11:53:44.798Z,370
2016-11-09T11:54:19.104Z,385
2016-11-09T11:54:52.723Z,390
2016-11-09T11:55:25.156Z,390
2016-11-09T11:55:57.484Z,390
2016-11-09T11:56:29.814Z,410
2016-11-09T11:57:02.127Z,315
2016-11-09T11:57:35.120Z,330
2016-11-09T11:58:07.454Z,365
2016-11-09T11:58:39.791Z,405
2016-11-09T11:59:12.122Z,415
2016-11-09T11:59:45.670Z,405
2016-11-09T12:00:18.010Z,400
2016-11-09T12:00:50.330Z,400
2016-11-09T12:01:22.651Z,380
2016-11-09T12:01:55.310Z,430
2016-11-09T12:02:27.663Z,425
2016-11-09T12:03:00.022Z,465
2016-11-09T12:03:32.346Z,395
2016-11-09T12:04:04.668Z,285
2016-11-09T12:04:36.978Z,260
2016-11-09T12:05:09.280Z,255
2016-11-09T12:05:41.604Z,395
2016-11-09T12:06:13.942Z,235
2016-11-09T12:06:47.253Z,215
2016-11-09T12:07:20.652Z,205
2016-11-09T12:07:53.021Z,210
2016-11-09T12:08:25.346Z,250
2016-11-09T12:08:57.683Z,240
2016-11-09T12:09:30.003Z,190
2016-11-09T12:10:02.334Z,165
2016-11-09T12:10:34.667Z,155
2016-11-09T12:11:06.981Z,155
2016-11-09T12:11:39.301Z,175
2016-11-09T12:12:11.676Z,165
2016-11-09T12:12:43.996Z,155
2016-11-09T12:13:16.304Z,155
2016-11-09T12:13:48.873Z,170
2016-11-09T12:14:21.215Z,210
2016-11-09T12:14:53.540Z,260
2016-11-09T12:15:25.899Z,465
2016-11-09T12:15:58.204Z,320
2016-11-09T12:16:30.524Z,405
2016-11-09T12:17:02.867Z,210
2016-11-09T12:17:35.235Z,195
2016-11-09T12:18:07.570Z,190
2016-11-09T12:18:39.895Z,205
2016-11-09T12:19:12.221Z,275
2016-11-09T12:19:44.556Z,185
2016-11-09T12:20:16.875Z,175
2016-11-09T12:20:49.218Z,160
2016-11-09T12:21:21.573Z,150
2016-11-09T12:21:56.365Z,145
2016-11-09T12:22:28.677Z,145
2016-11-09T12:23:00.994Z,145
2016-11-09T12:23:33.312Z,155
2016-11-09T12:24:05.662Z,180
2016-11-09T12:24:38.012Z,355
2016-11-09T12:25:10.371Z,530
2016-11-09T12:25:42.684Z,595
2016-11-09T12:26:15.038Z,280
2016-11-09T12:26:47.366Z,615
2016-11-09T12:27:20.299Z,675
2016-11-09T12:27:55.019Z,625
2016-11-09T12:28:27.337Z,255
2016-11-09T12:28:59.716Z,415
2016-11-09T12:29:32.047Z,335
2016-11-09T12:30:04.380Z,300
2016-11-09T12:30:36.711Z,310
2016-11-09T12:31:09.020Z,325
2016-11-09T12:31:41.287Z,285
2016-11-09T12:32:13.603Z,245
2016-11-09T12:32:45.921Z,200
2016-11-09T12:33:18.261Z,190
2016-11-09T12:33:50.589Z,165
2016-11-09T12:34:22.920Z,140
2016-11-09T12:34:55.269Z,115
2016-11-09T12:35:27.589Z,110
2016-11-09T12:35:59.944Z,105
2016-11-09T12:36:32.247Z,100
2016-11-09T12:37:04.571Z,95
2016-11-09T12:37:36.895Z,90
2016-11-09T12:38:09.254Z,85
2016-11-09T12:38:41.584Z,80
2016-11-09T12:39:14.447Z,75
2016-11-09T12:39:46.781Z,70
2016-11-09T12:40:19.109Z,65
2016-11-09T12:40:51.492Z,65
2016-11-09T12:41:23.803Z,55
2016-11-09T12:41:56.133Z,55
2016-11-09T12:42:28.469Z,50
2016-11-09T12:43:00.797Z,45
2016-11-09T12:43:33.110Z,45
2016-11-09T12:44:05.439Z,45
2016-11-09T12:44:37.759Z,45
2016-11-09T12:45:10.089Z,45
2016-11-09T12:45:42.406Z,45
2016-11-09T12:46:14.724Z,45
2016-11-09T12:46:47.027Z,45
2016-11-09T12:47:19.355Z,45
2016-11-09T12:47:51.710Z,45
2016-11-09T12:48:24.028Z,45
2016-11-09T12:48:56.368Z,45
2016-11-09T12:49:28.677Z,50
2016-11-09T12:50:01.073Z,50
2016-11-09T12:50:33.394Z,55
2016-11-09T12:51:05.707Z,60
2016-11-09T12:51:38.011Z,65
2016-11-09T12:52:10.340Z,70
2016-11-09T12:52:42.660Z,75
2016-11-09T12:53:14.987Z,80
2016-11-09T12:53:47.496Z,80
2016-11-09T12:54:19.905Z,85
2016-11-09T12:54:52.320Z,90
2016-11-09T12:55:24.646Z,90
2016-11-09T12:55:56.968Z,85
2016-11-09T12:56:29.295Z,85
2016-11-09T12:57:01.619Z,85
2016-11-09T12:57:33.946Z,90
2016-11-09T12:58:06.263Z,90
2016-11-09T12:58:38.588Z,90
2016-11-09T12:59:11.436Z,90
2016-11-09T12:59:43.798Z,90
2016-11-09T13:00:16.129Z,90
2016-11-09T13:00:48.451Z,90
2016-11-09T13:01:20.878Z,90
2016-11-09T13:01:53.378Z,90
2016-11-09T13:02:25.733Z,90
2016-11-09T13:02:58.049Z,90
2016-11-09T13:03:30.376Z,90
2016-11-09T13:04:02.699Z,90
2016-11-09T13:04:35.026Z,85
2016-11-09T13:05:07.331Z,85
2016-11-09T13:05:39.640Z,85
2016-11-09T13:06:11.956Z,85
2016-11-09T13:06:44.285Z,85
2016-11-09T13:07:16.590Z,85
2016-11-09T13:07:49.070Z,85
2016-11-09T13:08:22.150Z,85
2016-11-09T13:08:54.483Z,85
2016-11-09T13:09:26.809Z,85
2016-11-09T13:09:59.124Z,85
2016-11-09T13:10:31.906Z,85
2016-11-09T13:11:04.300Z,85
2016-11-09T13:11:36.619Z,80
2016-11-09T13:12:08.931Z,75
2016-11-09T13:12:41.248Z,75
2016-11-09T13:13:13.580Z,70
2016-11-09T13:13:45.911Z,70
2016-11-09T13:14:18.225Z,70
2016-11-09T13:14:50.552Z,65
2016-11-09T13:15:22.870Z,65
2016-11-09T13:15:55.196Z,65
2016-11-09T13:16:28.428Z,65
2016-11-09T13:17:00.731Z,60
2016-11-09T13:17:33.046Z,60
2016-11-09T13:18:05.361Z,55
2016-11-09T13:18:38.023Z,55
2016-11-09T13:19:14.033Z,50
2016-11-09T13:19:47.248Z,50
2016-11-09T13:20:22.032Z,50
2016-11-09T13:20:55.390Z,50
2016-11-09T13:21:33.282Z,50
2016-11-09T13:22:06.464Z,55
2016-11-09T13:22:40.559Z,55
2016-11-09T13:23:15.053Z,55
2016-11-09T13:23:50.764Z,55
2016-11-09T13:24:25.000Z,55
2016-11-09T13:24:59.654Z,55
2016-11-09T13:25:33.560Z,50
2016-11-09T13:26:07.226Z,50
2016-11-09T13:26:41.182Z,50
2016-11-09T13:29:07.174Z,55
2016-11-09T13:29:39.558Z,60
2016-11-09T13:30:11.883Z,60
2016-11-09T13:30:44.205Z,60
2016-11-09T13:31:16.582Z,60
2016-11-09T13:31:48.910Z,55
2016-11-09T13:32:21.772Z,55
2016-11-09T13:32:54.605Z,55
2016-11-09T13:33:28.485Z,55
2016-11-09T13:34:03.571Z,55
2016-11-09T13:34:39.176Z,50
2016-11-09T13:35:13.275Z,50
2016-11-09T13:35:49.033Z,50
2016-11-09T13:36:24.496Z,50
2016-11-09T13:37:04.306Z,55
2016-11-09T13:37:41.306Z,55
2016-11-09T13:38:14.509Z,55
2016-11-09T13:38:51.269Z,55
2016-11-09T13:39:28.064Z,55
2016-11-09T13:40:05.313Z,55
2016-11-09T13:40:47.309Z,50
2016-11-09T13:41:25.295Z,50
2016-11-09T13:42:03.966Z,50
2016-11-09T13:42:36.374Z,45
2016-11-09T13:43:09.811Z,45
2016-11-09T13:43:42.151Z,45
2016-11-09T13:44:14.475Z,45
2016-11-09T13:44:46.907Z,40
2016-11-09T13:45:20.724Z,40
2016-11-09T13:45:53.042Z,40
2016-11-09T13:46:27.178Z,35
2016-11-09T13:46:59.481Z,35
2016-11-09T13:47:32.386Z,35
2016-11-09T13:48:05.310Z,35
2016-11-09T13:48:37.913Z,35
2016-11-09T13:49:10.400Z,35
2016-11-09T13:49:42.743Z,35
2016-11-09T13:50:15.116Z,35
2016-11-09T13:50:47.449Z,35
2016-11-09T13:51:20.066Z,35
2016-11-09T13:51:52.431Z,35
2016-11-09T13:52:24.825Z,35
2016-11-09T13:52:58.810Z,35
2016-11-09T13:53:31.393Z,35
2016-11-09T13:54:04.067Z,35
2016-11-09T13:54:36.386Z,35
2016-11-09T13:55:08.716Z,35
2016-11-09T13:55:41.359Z,35
2016-11-09T13:56:13.721Z,30
2016-11-09T13:56:46.093Z,30
2016-11-09T13:57:18.453Z,30
2016-11-09T13:57:51.270Z,30
2016-11-09T13:58:24.002Z,25
2016-11-09T13:58:58.281Z,25
2016-11-09T13:59:30.701Z,25
2016-11-09T14:00:03.036Z,20
2016-11-09T14:00:37.952Z,20
2016-11-09T14:01:10.284Z,20
2016-11-09T14:01:43.309Z,20
2016-11-09T14:02:15.805Z,20
2016-11-09T14:02:49.237Z,20
2016-11-09T14:03:21.607Z,20
2016-11-09T14:03:53.935Z,20
2016-11-09T14:04:29.307Z,20
2016-11-09T14:05:05.316Z,20
2016-11-09T14:05:41.917Z,20
2016-11-09T14:06:19.043Z,20
2016-11-09T14:06:53.307Z,20
2016-11-09T14:07:30.316Z,20
2016-11-09T14:08:06.565Z,15
2016-11-09T14:08:41.728Z,15
2016-11-09T14:09:18.246Z,15
2016-11-09T14:10:03.333Z,15
2016-11-09T14:10:41.331Z,15
2016-11-09T14:11:16.212Z,10
2016-11-09T14:11:51.907Z,10
2016-11-09T14:12:24.377Z,10
2016-11-09T14:12:56.754Z,10
2016-11-09T14:13:30.177Z,10
2016-11-09T14:14:03.406Z,10
2016-11-09T14:14:35.755Z,10
2016-11-09T14:15:08.066Z,10
2016-11-09T14:15:40.371Z,10
2016-11-09T14:16:14.766Z,10
2016-11-09T14:16:56.439Z,10
2016-11-09T14:17:32.658Z,10
2016-11-09T14:18:08.155Z,10
2016-11-09T14:18:41.874Z,10
2016-11-09T14:19:17.931Z,10
2016-11-09T14:19:53.621Z,10
2016-11-09T14:20:30.512Z,10
2016-11-09T14:21:08.235Z,10
2016-11-09T14:21:43.914Z,10
2016-11-09T14:22:23.909Z,10
2016-11-09T14:22:59.787Z,10
2016-11-09T14:23:36.174Z,10
2016-11-09T14:24:13.359Z,10
2016-11-09T14:24:50.049Z,10
2016-11-09T14:25:24.149Z,10
2016-11-09T14:25:58.645Z,10
2016-11-09T14:26:33.133Z,10
2016-11-09T14:27:09.424Z,10
2016-11-09T14:27:48.414Z,10
2016-11-09T14:28:23.557Z,10
2016-11-09T14:28:58.843Z,10
2016-11-09T14:29:35.130Z,10
2016-11-09T14:30:09.539Z,5
2016-11-09T14:30:43.248Z,5
2016-11-09T14:31:18.189Z,5
2016-11-09T14:31:59.427Z,5
2016-11-09T14:32:33.203Z,5
2016-11-09T14:33:07.016Z,5
2016-11-09T14:33:41.309Z,5
2016-11-09T14:34:15.053Z,5
2016-11-09T14:34:50.111Z,5
2016-11-09T14:35:25.214Z,5
2016-11-09T14:36:01.425Z,5
2016-11-09T14:36:35.066Z,5
2016-11-09T14:37:09.452Z,5
2016-11-09T14:37:44.625Z,5
2016-11-09T14:38:19.525Z,5
2016-11-09T14:38:56.673Z,5
2016-11-09T14:39:31.207Z,5
2016-11-09T14:40:07.429Z,5
2016-11-09T14:40:49.937Z,5
2016-11-09T14:41:27.920Z,5
2016-11-09T14:42:02.991Z,5
2016-11-09T14:42:37.405Z,5
2016-11-09T14:43:12.529Z,5
2016-11-09T14:43:46.307Z,5
2016-11-09T14:44:20.438Z,10
2016-11-09T14:44:57.414Z,10
2016-11-09T14:45:30.991Z,10
2016-11-09T14:46:04.395Z,10
2016-11-09T14:46:36.714Z,10
2016-11-09T14:47:09.039Z,10
2016-11-09T14:47:41.369Z,10
2016-11-09T14:48:13.723Z,10
2016-11-09T14:48:46.055Z,10
2016-11-09T14:49:18.393Z,5
2016-11-09T14:49:50.744Z,5
2016-11-09T14:50:23.067Z,5
2016-11-09T14:50:55.401Z,5
2016-11-09T14:51:27.760Z,5
2016-11-09T14:52:00.086Z,5
2016-11-09T14:52:32.410Z,5
2016-11-09T14:53:04.743Z,5
2016-11-09T14:53:37.072Z,5
2016-11-09T14:54:09.402Z,5
2016-11-09T14:54:41.732Z,5
2016-11-09T14:55:14.053Z,5
2016-11-09T14:55:46.393Z,5
2016-11-09T14:56:18.752Z,5
2016-11-09T14:56:51.077Z,5
2016-11-09T14:57:23.401Z,5
2016-11-09T14:57:55.741Z,5
2016-11-09T14:58:28.052Z,5
2016-11-09T14:59:00.381Z,5
2016-11-09T14:59:32.709Z,5
2016-11-09T15:00:05.024Z,5
2016-11-09T15:00:37.385Z,5
2016-11-09T15:01:09.718Z,5
2016-11-09T15:01:42.045Z,5
2016-11-09T15:02:14.361Z,5
2016-11-09T15:02:46.681Z,5
2016-11-09T15:03:19.022Z,5
2016-11-09T15:03:52.371Z,5
2016-11-09T15:04:24.702Z,5
2016-11-09T15:04:57.022Z,5
2016-11-09T15:05:29.348Z,5
2016-11-09T15:06:01.668Z,5
2016-11-09T15:06:34.015Z,5
2016-11-09T15:07:06.362Z,5
2016-11-09T15:07:38.682Z,5
2016-11-09T15:08:11.047Z,5
2016-11-09T15:08:43.367Z,5
2016-11-09T15:09:15.698Z,5
2016-11-09T15:09:48.058Z,5
2016-11-09T15:10:20.426Z,5
2016-11-09T15:10:52.743Z,5
2016-11-09T15:11:25.074Z,5
2016-11-09T15:11:57.401Z,5
2016-11-09T15:12:29.722Z,0
2016-11-09T15:13:02.053Z,0
2016-11-09T15:13:34.384Z,0
2016-11-09T15:14:06.718Z,0
2016-11-09T15:14:39.024Z,0
2016-11-09T15:15:11.359Z,0
2016-11-09T15:15:43.716Z,0
2016-11-09T15:16:16.039Z,0
2016-11-09T15:16:48.362Z,0
2016-11-09T15:17:20.693Z,0
2016-11-09T15:17:53.267Z,0
2016-11-09T15:18:29.412Z,0
2016-11-09T15:19:01.746Z,0
2016-11-09T15:19:34.081Z,0
2016-11-09T15:20:06.423Z,0
2016-11-09T15:20:38.759Z,0
2016-11-09T15:21:11.091Z,0
2016-11-09T15:21:43.431Z,0
2016-11-09T15:22:15.758Z,0
2016-11-09T15:22:48.080Z,0
2016-11-09T15:23:20.409Z,0
2016-11-09T15:23:52.734Z,0
2016-11-09T15:24:25.062Z,0
2016-11-09T15:24:57.415Z,0
2016-11-09T15:25:29.761Z,0
2016-11-09T15:26:02.078Z,0
2016-11-09T15:26:34.438Z,0
2016-11-09T15:27:06.759Z,0
2016-11-09T15:27:39.065Z,0
2016-11-09T15:28:11.379Z,0
2016-11-09T15:28:43.711Z,0
2016-11-09T15:29:16.051Z,0
2016-11-09T15:29:48.371Z,0
2016-11-09T15:30:20.702Z,0
2016-11-09T15:30:53.025Z,0
2016-11-09T15:31:25.334Z,0
2016-11-09T15:31:57.657Z,0
2016-11-09T15:32:30.021Z,0
2016-11-09T15:33:02.354Z,0
2016-11-09T15:33:34.666Z,0
2016-11-09T15:34:07.003Z,0
2016-11-09T15:34:39.334Z,0
2016-11-09T15:35:11.641Z,0
2016-11-09T15:35:43.962Z,0
2016-11-09T15:36:16.288Z,0
2016-11-09T15:36:49.519Z,0
2016-11-09T15:37:23.077Z,0
2016-11-09T15:37:55.580Z,0
2016-11-09T15:38:27.912Z,0
2016-11-09T15:39:00.239Z,0
2016-11-09T15:39:32.577Z,0
2016-11-09T15:40:06.053Z,0
2016-11-09T15:40:39.037Z,0
2016-11-09T15:41:11.476Z,0
2016-11-09T15:41:43.797Z,0
2016-11-09T15:42:17.290Z,0
2016-11-09T15:42:50.896Z,0
2016-11-09T15:43:24.510Z,0
2016-11-09T15:43:58.184Z,0
2016-11-09T15:44:31.825Z,0
2016-11-09T15:45:05.275Z,0
2016-11-09T15:45:37.906Z,0
2016-11-09T15:46:10.269Z,0
2016-11-09T15:46:42.595Z,0
2016-11-09T15:47:14.924Z,0
2016-11-09T15:47:47.246Z,0
2016-11-09T15:48:19.572Z,0
2016-11-09T15:48:51.898Z,0
2016-11-09T15:49:24.224Z,0
2016-11-09T15:49:57.757Z,0
2016-11-09T15:50:31.385Z,0
2016-11-09T15:51:04.789Z,0
2016-11-09T15:51:37.327Z,0
2016-11-09T15:52:09.695Z,0
2016-11-09T15:52:42.026Z,0
2016-11-09T15:53:14.355Z,0
2016-11-09T15:53:46.686Z,0
2016-11-09T15:54:20.146Z,0
2016-11-09T15:54:52.844Z,0
2016-11-09T15:55:25.190Z,0
2016-11-09T15:55:57.550Z,0
2016-11-09T15:56:31.037Z,0
2016-11-09T15:57:04.019Z,0
2016-11-09T15:57:36.383Z,0
2016-11-09T15:58:08.848Z,0
2016-11-09T15:58:42.410Z,0
2016-11-09T15:59:14.983Z,0
2016-11-09T15:59:47.369Z,0
2016-11-09T16:00:19.692Z,0
2016-11-09T16:00:52.020Z,0
2016-11-09T16:01:24.335Z,0
2016-11-09T16:01:56.672Z,0
2016-11-09T16:02:29.002Z,0
2016-11-09T16:03:01.323Z,0
2016-11-09T16:03:33.650Z,0
2016-11-09T16:04:07.123Z,0
2016-11-09T16:04:40.729Z,0
2016-11-09T16:05:14.301Z,0
2016-11-09T16:05:47.301Z,0
2016-11-09T16:06:19.658Z,0
2016-11-09T16:06:53.032Z,0
2016-11-09T16:07:25.542Z,0
2016-11-09T16:07:57.878Z,0
2016-11-09T16:08:30.202Z,0
2016-11-09T16:09:02.568Z,0
2016-11-09T16:09:35.957Z,0
2016-11-09T16:10:09.560Z,0
2016-11-09T16:10:42.968Z,0
2016-11-09T16:11:16.720Z,0
2016-11-09T16:11:49.064Z,0
2016-11-09T16:12:21.386Z,0
2016-11-09T16:12:53.695Z,0
2016-11-09T16:13:26.029Z,0
2016-11-09T16:13:58.350Z,0
2016-11-09T16:14:30.675Z,0
2016-11-09T16:15:03.013Z,0
2016-11-09T16:15:35.337Z,0
2016-11-09T16:16:07.652Z,0
2016-11-09T16:16:40.010Z,0
2016-11-09T16:17:12.445Z,0
2016-11-09T16:17:45.998Z,0
2016-11-09T16:18:19.594Z,0
2016-11-09T16:18:53.858Z,0
2016-11-09T16:19:27.446Z,0
2016-11-09T16:20:01.025Z,0
2016-11-09T16:20:34.670Z,0
2016-11-09T16:21:08.284Z,0
2016-11-09T16:21:41.893Z,0
2016-11-09T16:22:15.558Z,0
2016-11-09T16:22:49.903Z,0
2016-11-09T16:23:23.534Z,0
2016-11-09T16:23:57.165Z,0
2016-11-09T16:24:30.791Z,0
2016-11-09T16:25:05.378Z,0
2016-11-09T16:25:38.997Z,0
2016-11-09T16:26:12.637Z,0
2016-11-09T16:26:46.259Z,0
2016-11-09T16:27:19.890Z,0
2016-11-09T16:27:53.517Z,0
2016-11-09T16:28:27.132Z,0
2016-11-09T16:29:00.775Z,0
2016-11-09T16:29:34.412Z,0
2016-11-09T16:30:07.976Z,0
2016-11-09T16:30:41.639Z,0
2016-11-09T16:31:15.283Z,0
2016-11-09T16:31:48.908Z,0
2016-11-09T16:32:22.527Z,0
2016-11-09T16:32:56.128Z,0
2016-11-09T16:33:29.700Z,0
2016-11-09T16:34:03.262Z,0
2016-11-09T16:34:36.226Z,0
2016-11-09T16:35:08.804Z,0
2016-11-09T16:35:41.207Z,0
2016-11-09T16:36:13.544Z,0
2016-11-09T16:36:45.863Z,0
2016-11-09T16:37:18.187Z,0
2016-11-09T16:37:50.540Z,0
2016-11-09T16:38:22.898Z,0
2016-11-09T16:38:55.257Z,0
2016-11-09T16:39:27.597Z,0
2016-11-09T16:39:59.968Z,0
2016-11-09T16:40:32.460Z,0
2016-11-09T16:41:04.796Z,0
2016-11-09T16:41:37.124Z,0
2016-11-09T16:42:09.459Z,0
2016-11-09T16:42:41.784Z,0
2016-11-09T16:43:14.109Z,0
2016-11-09T16:43:46.434Z,0
2016-11-09T16:44:18.759Z,0
2016-11-09T16:44:51.096Z,0
2016-11-09T16:45:23.422Z,0
2016-11-09T16:45:55.744Z,0
2016-11-09T16:46:28.070Z,0
2016-11-09T16:47:00.397Z,0
2016-11-09T16:47:32.729Z,0
2016-11-09T16:48:05.099Z,0
2016-11-09T16:48:37.403Z,0
2016-11-09T16:49:09.728Z,0
2016-11-09T16:49:42.033Z,0
2016-11-09T16:50:14.351Z,0
2016-11-09T16:50:46.699Z,0
2016-11-09T16:51:19.025Z,0
2016-11-09T16:51:51.384Z,0
2016-11-09T16:52:30.508Z,0
2016-11-09T16:53:02.839Z,0
2016-11-09T16:53:35.156Z,0
2016-11-09T16:54:07.471Z,0
2016-11-09T16:54:39.815Z,0
2016-11-09T16:55:12.142Z,0
2016-11-09T16:55:44.471Z,0
2016-11-09T16:56:16.792Z,0
2016-11-09T16:56:49.116Z,0
2016-11-09T16:57:21.457Z,0
2016-11-09T16:57:53.785Z,0
2016-11-09T16:58:26.129Z,0
2016-11-09T16:58:58.444Z,0
2016-11-09T16:59:30.772Z,0
2016-11-09T17:00:03.097Z,0
2016-11-09T17:00:35.424Z,0
2016-11-09T17:01:07.751Z,0
2016-11-09T17:01:40.071Z,0
2016-11-09T17:02:12.396Z,0
2016-11-09T17:02:44.722Z,0
2016-11-09T17:03:17.051Z,0
2016-11-09T17:03:49.373Z,0
2016-11-09T17:04:21.705Z,0
2016-11-09T17:04:54.026Z,0
2016-11-09T17:05:26.344Z,0
2016-11-09T17:05:58.670Z,0
2016-11-09T17:06:30.991Z,0
2016-11-09T17:07:03.314Z,0
2016-11-09T17:07:35.631Z,0
2016-11-09T17:08:07.955Z,0
2016-11-09T17:08:40.279Z,0
2016-11-09T17:09:12.619Z,0
2016-11-09T17:09:44.939Z,0
2016-11-09T17:10:17.282Z,0
2016-11-09T17:10:49.619Z,0
2016-11-09T17:11:21.941Z,0
2016-11-09T17:11:54.275Z,0
2016-11-09T17:12:26.640Z,0
2016-11-09T17:12:58.964Z,0
2016-11-09T17:13:31.309Z,0
2016-11-09T17:14:03.622Z,0
2016-11-09T17:14:35.932Z,0
2016-11-09T17:15:08.244Z,0
2016-11-09T17:15:40.575Z,0
2016-11-09T17:16:12.905Z,0
2016-11-09T17:16:45.266Z,0
2016-11-09T17:17:17.581Z,0
2016-11-09T17:17:49.914Z,0
2016-11-09T17:18:22.237Z,0
2016-11-09T17:18:54.553Z,0
2016-11-09T17:19:26.881Z,0
2016-11-09T17:19:59.200Z,0
2016-11-09T17:20:31.515Z,0
2016-11-09T17:21:03.883Z,0
2016-11-09T17:21:36.214Z,0
2016-11-09T17:22:08.544Z,0
2016-11-09T17:22:40.889Z,0
2016-11-09T17:23:13.228Z,0
2016-11-09T17:23:45.587Z,0
2016-11-09T17:24:17.920Z,0
2016-11-09T17:24:50.267Z,0
2016-11-09T17:25:22.591Z,0
2016-11-09T17:25:54.917Z,0
2016-11-09T17:26:27.224Z,0
2016-11-09T17:26:59.583Z,0
2016-11-09T17:27:31.905Z,0
2016-11-09T17:28:04.222Z,0
2016-11-09T17:28:36.567Z,0
2016-11-09T17:29:08.894Z,0
2016-11-09T17:29:41.203Z,0
2016-11-09T17:30:13.533Z,0
2016-11-09T17:30:45.856Z,0
2016-11-09T17:31:18.213Z,0
2016-11-09T17:31:50.574Z,0
2016-11-09T17:32:22.898Z,0
2016-11-09T17:32:55.226Z,0
2016-11-09T17:33:27.545Z,0
2016-11-09T17:33:59.879Z,0
2016-11-09T17:34:32.200Z,0
2016-11-09T17:35:04.536Z,0
2016-11-09T17:35:36.848Z,0
2016-11-09T17:36:09.167Z,0
2016-11-09T17:36:41.479Z,0
2016-11-09T17:37:13.807Z,0
2016-11-09T17:37:46.135Z,0
2016-11-09T17:38:18.475Z,0
2016-11-09T17:38:50.806Z,0
2016-11-09T17:39:23.134Z,0
2016-11-09T17:39:55.510Z,0
2016-11-09T17:40:27.843Z,0
2016-11-09T17:41:00.184Z,0
2016-11-09T17:41:33.466Z,0
2016-11-09T17:42:05.787Z,0
2016-11-09T17:42:38.096Z,0
2016-11-09T17:43:10.492Z,0
2016-11-09T17:43:42.835Z,0
2016-11-09T17:44:15.163Z,0
2016-11-09T17:44:47.498Z,0
2016-11-09T17:45:19.834Z,0
2016-11-09T17:45:52.184Z,0
2016-11-09T17:46:24.508Z,0
2016-11-09T17:46:56.835Z,0
2016-11-09T17:47:29.154Z,0
2016-11-09T17:48:01.478Z,0
2016-11-09T17:48:33.811Z,0
2016-11-09T17:49:06.129Z,0
2016-11-09T17:49:38.465Z,0
2016-11-09T17:50:10.792Z,0
2016-11-09T17:50:43.127Z,0
2016-11-09T17:51:15.465Z,0
2016-11-09T17:51:47.785Z,0
2016-11-09T17:52:20.103Z,0
2016-11-09T17:52:52.455Z,0
2016-11-09T17:53:24.783Z,0
2016-11-09T17:53:57.144Z,0
2016-11-09T17:54:29.477Z,0
2016-11-09T17:55:01.811Z,0
2016-11-09T17:55:34.149Z,0
2016-11-09T17:56:06.477Z,0
2016-11-09T17:56:38.814Z,0
2016-11-09T17:57:11.127Z,0
2016-11-09T17:57:43.446Z,0
2016-11-09T17:58:15.774Z,0
2016-11-09T17:58:48.103Z,0
2016-11-09T17:59:20.442Z,0
2016-11-09T17:59:52.767Z,0
2016-11-09T18:00:25.095Z,0
2016-11-09T18:00:57.429Z,0
2016-11-09T18:01:29.742Z,0
2016-11-09T18:02:02.107Z,0
2016-11-09T18:02:34.430Z,0
2016-11-09T18:03:06.752Z,0
2016-11-09T18:03:39.085Z,0
2016-11-09T18:04:11.405Z,0
2016-11-09T18:04:43.727Z,0
2016-11-09T18:05:16.047Z,0
2016-11-09T18:05:48.376Z,0
2016-11-09T18:06:20.691Z,0
2016-11-09T18:06:53.009Z,0
2016-11-09T18:07:25.329Z,0
2016-11-09T18:07:57.649Z,0
2016-11-09T18:08:29.988Z,0
2016-11-09T18:09:02.309Z,0
2016-11-09T18:09:35.285Z,0
2016-11-09T18:10:08.820Z,0
2016-11-09T18:10:42.399Z,0
2016-11-09T18:11:16.012Z,0
2016-11-09T18:11:48.987Z,0
2016-11-09T18:12:21.450Z,0
2016-11-09T18:12:53.797Z,0
2016-11-09T18:13:26.161Z,0
2016-11-09T18:13:58.476Z,0
2016-11-09T18:14:30.838Z,0
2016-11-09T18:15:03.217Z,0
2016-11-09T18:15:35.591Z,0
2016-11-09T18:16:07.913Z,0
2016-11-09T18:16:40.234Z,0
2016-11-09T18:17:12.547Z,0
2016-11-09T18:17:44.865Z,0
2016-11-09T18:18:17.194Z,0
2016-11-09T18:18:49.531Z,0
2016-11-09T18:19:21.891Z,0
2016-11-09T18:19:54.216Z,0
2016-11-09T18:20:26.546Z,0
2016-11-09T18:20:58.879Z,0
2016-11-09T18:21:31.206Z,0
2016-11-09T18:22:04.323Z,0
2016-11-09T18:22:36.712Z,0
2016-11-09T18:23:09.043Z,0
2016-11-09T18:23:41.350Z,0
2016-11-09T18:24:13.688Z,0
2016-11-09T18:24:46.188Z,0
2016-11-09T18:25:18.504Z,0
2016-11-09T18:25:50.822Z,0
2016-11-09T18:26:23.139Z,0
2016-11-09T18:26:55.480Z,0
2016-11-09T18:27:27.807Z,0
2016-11-09T18:28:00.134Z,0
2016-11-09T18:28:32.447Z,0
2016-11-09T18:29:04.787Z,0
2016-11-09T18:29:37.108Z,0
2016-11-09T18:30:09.446Z,0
2016-11-09T18:30:41.766Z,0
2016-11-09T18:31:14.097Z,0
2016-11-09T18:31:46.430Z,0
2016-11-09T18:32:18.754Z,0
2016-11-09T18:32:51.082Z,0
2016-11-09T18:33:23.402Z,0
2016-11-09T18:33:55.719Z,0
2016-11-09T18:34:28.038Z,0
2016-11-09T18:35:00.359Z,0
2016-11-09T18:35:32.727Z,0
2016-11-09T18:36:05.049Z,0
2016-11-09T18:36:37.377Z,0
2016-11-09T18:37:09.701Z,0
2016-11-09T18:37:42.044Z,0
2016-11-09T18:38:14.414Z,0
2016-11-09T18:38:46.729Z,0
2016-11-09T18:39:19.052Z,0
2016-11-09T18:39:51.381Z,0
2016-11-09T18:40:23.701Z,0
2016-11-09T18:40:56.015Z,0
2016-11-09T18:41:28.382Z,0
2016-11-09T18:42:00.705Z,0
2016-11-09T18:42:33.015Z,0
2016-11-09T18:43:05.356Z,0
2016-11-09T18:43:37.711Z,0
2016-11-09T18:44:10.033Z,0
2016-11-09T18:44:42.396Z,0
2016-11-09T18:45:14.725Z,0
2016-11-09T18:45:47.044Z,0
2016-11-09T18:46:19.352Z,0
2016-11-09T18:46:51.679Z,0
2016-11-09T18:47:24.019Z,0
2016-11-09T18:47:56.345Z,0
2016-11-09T18:48:28.664Z,0
2016-11-09T18:49:01.000Z,0
2016-11-09T18:49:33.325Z,0
2016-11-09T18:50:05.640Z,0
2016-11-09T18:50:38.953Z,0
2016-11-09T18:51:11.288Z,0
2016-11-09T18:51:43.617Z,0
2016-11-09T18:52:15.966Z,0
2016-11-09T18:52:48.373Z,0
2016-11-09T18:53:20.706Z,0
2016-11-09T18:53:53.034Z,0
2016-11-09T18:54:25.357Z,0
2016-11-09T18:54:57.684Z,0
2016-11-09T18:55:30.014Z,0
2016-11-09T18:56:02.335Z,0
2016-11-09T18:56:34.649Z,0
2016-11-09T18:57:06.987Z,0
2016-11-09T18:57:39.352Z,0
2016-11-09T18:58:11.690Z,0
2016-11-09T18:58:44.026Z,0
2016-11-09T18:59:16.411Z,0
2016-11-09T18:59:48.744Z,0
2016-11-09T19:00:21.091Z,0
2016-11-09T19:00:53.450Z,0
2016-11-09T19:01:25.761Z,0
2016-11-09T19:01:58.080Z,0
2016-11-09T19:02:30.440Z,0
2016-11-09T19:03:02.756Z,0
2016-11-09T19:03:35.084Z,0
2016-11-09T19:04:07.415Z,0
2016-11-09T19:04:39.743Z,0
2016-11-09T19:05:12.063Z,0
2016-11-09T19:05:44.396Z,0
2016-11-09T19:06:16.731Z,0
2016-11-09T19:06:49.048Z,0
2016-11-09T19:07:21.376Z,0
2016-11-09T19:07:53.738Z,0
2016-11-09T19:08:26.060Z,0
2016-11-09T19:08:58.388Z,0
2016-11-09T19:09:30.712Z,0
2016-11-09T19:10:03.024Z,0
2016-11-09T19:10:35.347Z,0
2016-11-09T19:11:07.672Z,0
2016-11-09T19:11:40.008Z,0
2016-11-09T19:12:12.335Z,0
2016-11-09T19:12:44.667Z,0
2016-11-09T19:13:16.996Z,0
2016-11-09T19:13:49.320Z,0
2016-11-09T19:14:21.637Z,0
2016-11-09T19:14:53.949Z,0
2016-11-09T19:15:26.284Z,0
2016-11-09T19:15:58.615Z,0
2016-11-09T19:16:30.973Z,0
2016-11-09T19:17:03.282Z,0
2016-11-09T19:17:35.613Z,0
2016-11-09T19:18:07.931Z,0